createdAt,value
2023-03-05T00:01:19.542Z,84.20
2023-03-05T00:03:47.550Z,83.98
2023-03-05T00:06:17.001Z,84.77
2023-03-05T00:08:44.623Z,85.19
2023-03-05T00:11:14.083Z,84.70
2023-03-05T00:13:41.995Z,83.68
2023-03-05T00:16:12.010Z,82.75
2023-03-05T00:18:40.139Z,83.78
2023-03-05T00:21:19.079Z,83.47
2023-03-05T00:23:46.655Z,84.08
2023-03-05T00:26:15.506Z,85.08
2023-03-05T00:28:43.801Z,84.90
2023-03-05T00:31:11.432Z,83.17
2023-03-05T00:33:39.281Z,84.25
2023-03-05T00:36:07.991Z,84.60
2023-03-05T00:38:35.706Z,83.59
2023-03-05T00:41:04.144Z,84.48
2023-03-05T00:43:33.048Z,85.80
2023-03-05T00:46:01.164Z,84.82
2023-03-05T00:48:28.794Z,83.74
2023-03-05T00:50:56.391Z,82.51
2023-03-05T00:53:24.183Z,83.19
2023-03-05T00:55:52.045Z,84.46
2023-03-05T00:58:20.731Z,84.49
2023-03-05T01:00:50.496Z,83.46
2023-03-05T01:03:18.609Z,83.70
2023-03-05T01:05:46.315Z,84.77
2023-03-05T01:08:13.863Z,85.27
2023-03-05T01:10:41.436Z,85.15
2023-03-05T01:13:09.298Z,85.77
2023-03-05T01:15:36.863Z,83.52
2023-03-05T01:18:06.339Z,82.22
2023-03-05T01:20:34.268Z,81.40
2023-03-05T01:23:02.034Z,82.72
2023-03-05T01:25:29.785Z,82.99
2023-03-05T01:27:57.503Z,82.52
2023-03-05T01:30:25.535Z,82.79
2023-03-05T01:32:53.084Z,82.46
2023-03-05T01:35:24.828Z,83.50
2023-03-05T01:37:52.721Z,84.79
2023-03-05T01:40:25.988Z,84.21
2023-03-05T01:42:57.410Z,83.00
2023-03-05T01:45:25.359Z,83.87
2023-03-05T01:47:52.999Z,82.95
2023-03-05T01:50:25.499Z,82.50
2023-03-05T01:52:58.455Z,82.88
2023-03-05T01:55:28.732Z,83.65
2023-03-05T01:58:00.542Z,84.28
2023-03-05T02:00:31.790Z,84.45
2023-03-05T02:03:03.524Z,84.91
2023-03-05T02:05:34.140Z,84.19
2023-03-05T02:08:04.505Z,84.23
2023-03-05T02:10:35.010Z,83.86
2023-03-05T02:13:05.928Z,83.79
2023-03-05T02:15:37.234Z,84.10
2023-03-05T02:18:05.914Z,84.29
2023-03-05T02:20:46.746Z,84.64
2023-03-05T02:23:16.533Z,83.75
2023-03-05T02:25:44.890Z,83.10
2023-03-05T02:28:18.494Z,82.79
2023-03-05T02:30:46.373Z,83.09
2023-03-05T02:33:14.926Z,83.16
2023-03-05T02:35:43.591Z,84.00
2023-03-05T02:38:11.871Z,83.41
2023-03-05T02:40:40.986Z,83.49
2023-03-05T02:43:09.044Z,82.09
2023-03-05T02:45:37.192Z,81.78
2023-03-05T02:48:05.512Z,82.50
2023-03-05T02:50:34.189Z,83.34
2023-03-05T02:53:01.864Z,82.93
2023-03-05T02:55:30.491Z,82.55
2023-03-05T02:57:59.481Z,82.92
2023-03-05T03:00:28.856Z,82.32
2023-03-05T03:02:56.796Z,82.54
2023-03-05T03:05:24.516Z,83.56
2023-03-05T03:07:52.247Z,84.81
2023-03-05T03:10:20.166Z,85.12
2023-03-05T03:12:47.911Z,84.25
2023-03-05T03:15:18.594Z,82.49
2023-03-05T03:17:46.957Z,83.63
2023-03-05T03:20:18.048Z,84.48
2023-03-05T03:22:47.227Z,83.88
2023-03-05T03:25:15.962Z,83.53
2023-03-05T03:27:43.677Z,83.94
2023-03-05T03:30:12.905Z,84.66
2023-03-05T03:32:41.935Z,84.70
2023-03-05T03:35:11.368Z,84.64
2023-03-05T03:37:39.445Z,84.73
2023-03-05T03:40:08.914Z,83.66
2023-03-05T03:42:37.026Z,82.84
2023-03-05T03:45:05.494Z,83.87
2023-03-05T03:47:33.334Z,83.02
2023-03-05T03:50:02.499Z,81.70
2023-03-05T03:52:30.205Z,83.04
2023-03-05T03:55:01.655Z,82.76
2023-03-05T03:57:30.546Z,82.56
2023-03-05T03:59:58.210Z,82.87
2023-03-05T04:02:27.208Z,83.72
2023-03-05T04:04:54.901Z,83.50
2023-03-05T04:07:23.913Z,83.89
2023-03-05T04:09:51.827Z,83.25
2023-03-05T04:12:19.522Z,82.85
2023-03-05T04:14:47.862Z,83.90
2023-03-05T04:17:16.568Z,83.70
2023-03-05T04:19:44.554Z,82.17
2023-03-05T04:22:12.948Z,80.88
2023-03-05T04:24:42.510Z,80.98
2023-03-05T04:27:10.419Z,82.41
2023-03-05T04:29:38.432Z,83.15
2023-03-05T04:32:06.796Z,82.10
2023-03-05T04:34:35.271Z,82.11
2023-03-05T04:37:03.117Z,81.79
2023-03-05T04:39:30.895Z,82.57
2023-03-05T04:41:59.882Z,83.70
2023-03-05T04:44:27.523Z,83.47
2023-03-05T04:46:55.122Z,83.08
2023-03-05T04:49:22.735Z,83.75
2023-03-05T04:51:50.503Z,83.09
2023-03-05T04:54:18.110Z,83.06
2023-03-05T04:56:45.743Z,81.87
2023-03-05T04:59:14.692Z,82.58
2023-03-05T05:01:43.136Z,81.64
2023-03-05T05:04:10.814Z,82.14
2023-03-05T05:06:38.466Z,82.12
2023-03-05T05:09:06.241Z,82.06
2023-03-05T05:11:33.856Z,81.88
2023-03-05T05:14:01.648Z,82.62
2023-03-05T05:16:30.934Z,82.89
2023-03-05T05:18:58.656Z,82.61
2023-03-05T05:21:26.285Z,81.63
2023-03-05T05:23:53.944Z,80.85
2023-03-05T05:26:21.624Z,81.74
2023-03-05T05:28:49.269Z,81.88
2023-03-05T05:31:17.816Z,82.09
2023-03-05T05:33:49.672Z,82.66
2023-03-05T05:36:20.061Z,82.36
2023-03-05T05:38:47.670Z,82.47
2023-03-05T05:41:18.082Z,82.83
2023-03-05T05:43:45.763Z,82.48
2023-03-05T05:46:15.719Z,82.96
2023-03-05T05:48:44.421Z,82.83
2023-03-05T05:51:16.014Z,83.32
2023-03-05T05:53:44.059Z,83.34
2023-03-05T05:56:13.207Z,83.42
2023-03-05T05:58:42.249Z,83.33
2023-03-05T06:01:15.017Z,83.90
2023-03-05T06:03:42.685Z,82.92
2023-03-05T06:06:13.905Z,83.97
2023-03-05T06:08:41.886Z,82.93
2023-03-05T06:11:10.150Z,83.14
2023-03-05T06:13:38.124Z,82.89
2023-03-05T06:16:08.028Z,83.77
2023-03-05T06:18:36.684Z,84.06
2023-03-05T06:21:06.677Z,82.86
2023-03-05T06:23:36.115Z,84.05
2023-03-05T06:26:06.442Z,82.85
2023-03-05T06:28:34.578Z,82.29
2023-03-05T06:31:02.953Z,82.35
2023-03-05T06:33:31.340Z,82.26
2023-03-05T06:35:59.245Z,81.89
2023-03-05T06:38:27.070Z,83.13
2023-03-05T06:40:56.075Z,83.25
2023-03-05T06:43:23.642Z,82.61
2023-03-05T06:46:01.880Z,81.00
2023-03-05T06:48:29.494Z,81.21
2023-03-05T06:50:57.023Z,81.84
2023-03-05T06:53:24.853Z,82.63
2023-03-05T06:55:52.512Z,81.14
2023-03-05T06:58:22.515Z,80.97
2023-03-05T07:00:50.408Z,80.35
2023-03-05T07:03:18.093Z,81.34
2023-03-05T07:05:45.728Z,82.83
2023-03-05T07:08:13.329Z,83.55
2023-03-05T07:10:41.652Z,82.55
2023-03-05T07:13:09.667Z,82.54
2023-03-05T07:15:41.134Z,82.37
2023-03-05T07:18:09.212Z,83.48
2023-03-05T07:20:37.193Z,82.58
2023-03-05T07:23:05.546Z,83.25
2023-03-05T07:25:34.120Z,81.14
2023-03-05T07:28:01.853Z,80.42
2023-03-05T07:30:29.566Z,78.74
2023-03-05T07:32:58.470Z,79.47
2023-03-05T07:35:26.208Z,79.35
2023-03-05T07:37:54.886Z,88.89
2023-03-05T07:40:22.871Z,83.17
2023-03-05T07:42:50.403Z,79.62
2023-03-05T07:45:28.365Z,81.78
2023-03-05T07:47:56.918Z,79.12
2023-03-05T07:50:25.971Z,78.84
2023-03-05T07:52:53.691Z,77.67
2023-03-05T07:55:21.282Z,76.95
2023-03-05T07:57:48.833Z,75.00
2023-03-05T08:00:17.153Z,73.63
2023-03-05T08:02:44.798Z,74.96
2023-03-05T08:05:12.554Z,74.99
2023-03-05T08:07:41.444Z,75.58
2023-03-05T08:10:10.555Z,74.11
2023-03-05T08:12:38.106Z,74.19
2023-03-05T08:15:06.783Z,73.81
2023-03-05T08:17:34.313Z,72.98
2023-03-05T08:20:05.374Z,73.40
2023-03-05T08:22:34.726Z,73.16
2023-03-05T08:25:04.754Z,72.58
2023-03-05T08:27:32.445Z,71.26
2023-03-05T08:30:01.844Z,68.64
2023-03-05T08:32:29.627Z,69.92
2023-03-05T08:34:58.292Z,69.43
2023-03-05T08:37:25.920Z,70.05
2023-03-05T08:39:53.491Z,69.00
2023-03-05T08:42:22.453Z,70.13
2023-03-05T08:44:50.054Z,68.79
2023-03-05T08:47:18.187Z,68.92
2023-03-05T08:49:45.847Z,68.75
2023-03-05T08:52:13.761Z,68.13
2023-03-05T08:54:41.369Z,68.45
2023-03-05T08:57:09.000Z,67.93
2023-03-05T08:59:37.957Z,68.98
2023-03-05T09:02:05.730Z,68.29
2023-03-05T09:04:33.457Z,68.83
2023-03-05T09:07:00.990Z,68.24
2023-03-05T09:09:29.902Z,67.72
2023-03-05T09:11:59.034Z,67.33
2023-03-05T09:14:28.259Z,67.73
2023-03-05T09:16:57.244Z,69.60
2023-03-05T09:19:25.618Z,68.30
2023-03-05T09:21:55.365Z,67.70
2023-03-05T09:24:24.176Z,66.76
2023-03-05T09:26:51.749Z,66.27
2023-03-05T09:29:19.330Z,66.53
2023-03-05T09:31:48.569Z,67.19
2023-03-05T09:34:17.535Z,67.23
2023-03-05T09:36:45.463Z,67.62
2023-03-05T09:39:13.088Z,67.44
2023-03-05T09:41:56.921Z,68.11
2023-03-05T09:44:34.674Z,68.79
2023-03-05T09:47:09.969Z,68.36
2023-03-05T09:49:51.796Z,68.59
2023-03-05T09:52:22.519Z,69.15
2023-03-05T09:54:55.533Z,68.56
2023-03-05T09:57:28.265Z,68.76
2023-03-05T10:00:00.653Z,68.57
2023-03-05T10:02:32.500Z,68.52
2023-03-05T10:05:13.202Z,69.07
2023-03-05T10:07:45.133Z,68.04
2023-03-05T10:10:18.469Z,68.43
2023-03-05T10:12:46.934Z,68.44
2023-03-05T10:15:17.026Z,68.70
2023-03-05T10:17:59.407Z,68.59
2023-03-05T10:20:45.777Z,68.63
2023-03-05T10:23:32.756Z,68.59
2023-03-05T10:26:11.143Z,68.34
2023-03-05T10:28:47.155Z,68.83
2023-03-05T10:31:35.958Z,68.29
2023-03-05T10:34:22.857Z,68.15
2023-03-05T10:37:07.268Z,67.32
2023-03-05T10:39:47.662Z,66.80
2023-03-05T10:42:26.158Z,66.50
2023-03-05T10:44:56.752Z,67.31
2023-03-05T10:47:28.963Z,67.44
2023-03-05T10:49:59.072Z,67.37
2023-03-05T10:52:32.985Z,67.78
2023-03-05T10:55:00.563Z,67.44
2023-03-05T10:57:31.660Z,67.38
2023-03-05T11:00:07.925Z,67.22
2023-03-05T11:02:54.863Z,68.15
2023-03-05T11:05:39.958Z,68.13
2023-03-05T11:08:28.823Z,66.73
2023-03-05T11:11:21.109Z,66.33
2023-03-05T11:13:58.658Z,66.96
2023-03-05T11:16:28.804Z,66.48
2023-03-05T11:19:18.511Z,66.75
2023-03-05T11:21:47.108Z,68.12
2023-03-05T11:24:18.733Z,68.25
2023-03-05T11:26:49.081Z,68.01
2023-03-05T11:29:21.156Z,68.07
2023-03-05T11:31:48.869Z,68.23
2023-03-05T11:34:31.306Z,67.81
2023-03-05T11:37:06.050Z,68.17
2023-03-05T11:39:38.374Z,68.70
2023-03-05T11:42:13.929Z,68.79
2023-03-05T11:44:47.799Z,67.92
2023-03-05T11:47:25.274Z,67.78
2023-03-05T11:50:02.069Z,68.70
2023-03-05T11:52:32.196Z,68.14
2023-03-05T11:55:09.826Z,68.49
2023-03-05T11:57:45.117Z,69.43
2023-03-05T12:00:17.163Z,69.65
2023-03-05T12:02:45.688Z,68.97
2023-03-05T12:05:15.911Z,69.67
2023-03-05T12:07:48.381Z,69.87
2023-03-05T12:10:19.409Z,69.03
2023-03-05T12:12:52.269Z,68.68
2023-03-05T12:15:42.906Z,68.67
2023-03-05T12:18:23.418Z,68.93
2023-03-05T12:20:58.193Z,68.52
2023-03-05T12:23:27.916Z,69.09
2023-03-05T12:25:59.307Z,69.55
2023-03-05T12:28:59.301Z,69.68
2023-03-05T12:31:37.626Z,69.75
2023-03-05T12:34:36.233Z,69.14
2023-03-05T12:37:04.008Z,69.20
2023-03-05T12:39:49.514Z,68.43
2023-03-05T12:42:52.708Z,68.73
2023-03-05T12:45:38.494Z,67.99
2023-03-05T12:48:43.945Z,67.99
2023-03-05T12:51:29.723Z,67.21
2023-03-05T12:53:58.702Z,68.22
2023-03-05T12:56:32.604Z,67.93
2023-03-05T12:59:04.529Z,66.71
2023-03-05T13:01:42.054Z,66.91
2023-03-05T13:04:17.360Z,68.00
2023-03-05T13:06:45.156Z,68.76
2023-03-05T13:09:18.300Z,86.33
2023-03-05T13:11:49.242Z,70.31
2023-03-05T13:14:38.506Z,68.84
2023-03-05T13:17:26.752Z,67.43
2023-03-05T13:19:54.325Z,67.10
2023-03-05T13:22:24.442Z,68.28
2023-03-05T13:25:14.596Z,68.84
2023-03-05T13:27:42.742Z,69.44
2023-03-05T13:30:26.224Z,68.50
2023-03-05T13:32:55.965Z,68.64
2023-03-05T13:35:24.131Z,79.72
2023-03-05T13:37:51.836Z,79.09
2023-03-05T13:40:23.805Z,72.00
2023-03-05T13:42:53.140Z,68.53
2023-03-05T13:45:28.618Z,67.10
2023-03-05T13:47:58.878Z,67.34
2023-03-05T13:50:29.591Z,68.20
2023-03-05T13:52:59.379Z,67.51
2023-03-05T13:55:27.063Z,68.20
2023-03-05T13:57:55.118Z,68.48
2023-03-05T14:00:31.594Z,68.10
2023-03-05T14:03:03.020Z,68.01
2023-03-05T14:05:32.258Z,68.61
2023-03-05T14:07:59.885Z,68.58
2023-03-05T14:10:32.304Z,68.11
2023-03-05T14:13:02.653Z,69.29
2023-03-05T14:15:33.646Z,69.11
2023-03-05T14:18:19.351Z,68.67
2023-03-05T14:21:01.336Z,69.11
2023-03-05T14:23:36.266Z,69.90
2023-03-05T14:26:21.699Z,70.00
2023-03-05T14:28:53.798Z,69.50
2023-03-05T14:31:25.108Z,71.99
2023-03-05T14:33:54.268Z,70.80
2023-03-05T14:36:25.472Z,70.25
2023-03-05T14:38:54.618Z,70.89
2023-03-05T14:41:38.592Z,70.32
2023-03-05T14:44:14.326Z,70.39
2023-03-05T14:46:44.541Z,70.12
2023-03-05T14:49:12.119Z,70.27
2023-03-05T14:51:43.248Z,70.25
2023-03-05T14:54:20.937Z,70.45
2023-03-05T14:56:49.599Z,70.54
2023-03-05T14:59:18.429Z,70.21
2023-03-05T15:01:47.430Z,70.70
2023-03-05T15:04:18.997Z,70.03
2023-03-05T15:06:50.797Z,70.88
2023-03-05T15:09:19.729Z,70.29
2023-03-05T15:11:48.150Z,70.95
2023-03-05T15:14:15.843Z,70.78
2023-03-05T15:16:45.328Z,70.22
2023-03-05T15:19:14.478Z,70.95
2023-03-05T15:21:42.294Z,71.29
2023-03-05T15:24:11.409Z,71.09
2023-03-05T15:26:39.294Z,71.53
2023-03-05T15:29:06.896Z,71.41
2023-03-05T15:31:38.588Z,71.10
2023-03-05T15:34:06.765Z,71.52
2023-03-05T15:36:35.706Z,71.65
2023-03-05T15:39:03.334Z,71.97
2023-03-05T15:41:30.994Z,78.62
2023-03-05T15:43:58.578Z,79.13
2023-03-05T15:46:26.187Z,73.48
2023-03-05T15:48:53.799Z,71.52
2023-03-05T15:51:21.388Z,71.74
2023-03-05T15:53:50.284Z,72.24
2023-03-05T15:56:18.877Z,71.98
2023-03-05T15:58:46.480Z,72.30
2023-03-05T16:01:15.570Z,71.90
2023-03-05T16:03:43.223Z,71.55
2023-03-05T16:06:12.401Z,72.55
2023-03-05T16:08:41.832Z,72.63
2023-03-05T16:11:11.644Z,72.23
2023-03-05T16:13:39.507Z,72.57
2023-03-05T16:16:08.797Z,71.62
2023-03-05T16:18:44.475Z,70.83
2023-03-05T16:21:13.700Z,71.20
2023-03-05T16:23:43.264Z,71.92
2023-03-05T16:26:12.221Z,71.93
2023-03-05T16:28:39.790Z,73.12
2023-03-05T16:31:07.438Z,72.81
2023-03-05T16:33:35.116Z,72.06
2023-03-05T16:36:21.184Z,72.42
2023-03-05T16:38:49.676Z,72.97
2023-03-05T16:41:21.993Z,72.22
2023-03-05T16:43:51.470Z,72.97
2023-03-05T16:46:19.047Z,73.54
2023-03-05T16:48:47.226Z,73.40
2023-03-05T16:51:15.151Z,73.34
2023-03-05T16:53:43.295Z,73.23
2023-03-05T16:56:11.231Z,73.48
2023-03-05T16:58:41.386Z,74.62
2023-03-05T17:01:13.668Z,74.16
2023-03-05T17:03:43.399Z,79.15
2023-03-05T17:06:13.388Z,77.13
2023-03-05T17:08:42.088Z,76.77
2023-03-05T17:11:09.922Z,76.59
2023-03-05T17:13:38.067Z,75.32
2023-03-05T17:16:09.288Z,75.71
2023-03-05T17:18:36.907Z,75.17
2023-03-05T17:21:07.058Z,75.52
2023-03-05T17:23:34.939Z,76.25
2023-03-05T17:26:04.654Z,76.66
2023-03-05T17:28:32.222Z,76.06
2023-03-05T17:31:01.275Z,76.29
2023-03-05T17:33:31.193Z,76.33
2023-03-05T17:35:59.440Z,76.42
2023-03-05T17:38:28.283Z,76.60
2023-03-05T17:40:56.569Z,76.35
2023-03-05T17:43:24.363Z,77.59
2023-03-05T17:45:52.035Z,78.18
2023-03-05T17:48:19.682Z,77.40
2023-03-05T17:50:48.698Z,78.20
2023-03-05T17:53:16.298Z,78.40
2023-03-05T17:55:43.876Z,77.61
2023-03-05T17:58:11.482Z,77.12
2023-03-05T18:00:39.127Z,77.56
2023-03-05T18:07:20.394Z,77.92
2023-03-05T18:09:47.963Z,78.89
2023-03-05T18:12:15.575Z,78.91
2023-03-05T18:14:43.212Z,78.95
2023-03-05T18:17:10.774Z,79.53
2023-03-05T18:19:38.347Z,78.96
2023-03-05T18:22:06.061Z,79.48
2023-03-05T18:24:35.150Z,78.31
2023-03-05T18:27:02.810Z,78.08
2023-03-05T18:29:30.569Z,78.87
2023-03-05T18:31:58.218Z,78.66
2023-03-05T18:34:25.955Z,79.60
2023-03-05T18:36:54.156Z,80.05
2023-03-05T18:39:21.998Z,79.49
2023-03-05T18:41:51.133Z,81.13
2023-03-05T18:48:25.237Z,81.45
2023-03-05T18:50:54.322Z,81.34
2023-03-05T18:53:22.779Z,81.29
2023-03-05T18:55:51.501Z,80.98
2023-03-05T18:58:20.564Z,81.34
2023-03-05T19:00:48.593Z,81.42
2023-03-05T19:03:18.710Z,82.04
2023-03-05T19:05:47.006Z,82.20
2023-03-05T19:08:14.557Z,81.82
2023-03-05T19:10:42.140Z,81.85
2023-03-05T19:13:22.957Z,81.04
2023-03-05T19:15:52.111Z,81.26
2023-03-05T19:18:20.602Z,80.99
2023-03-05T19:20:55.354Z,82.20
2023-03-05T19:23:23.147Z,81.86
2023-03-05T19:25:50.754Z,82.19
2023-03-05T19:28:19.436Z,81.81
2023-03-05T19:30:49.488Z,82.28
2023-03-05T19:33:18.503Z,82.43
2023-03-05T19:35:46.106Z,81.85
2023-03-05T19:38:13.730Z,82.78
2023-03-05T19:40:41.608Z,83.32
2023-03-05T19:43:09.471Z,83.35
2023-03-05T19:45:37.073Z,84.20
2023-03-05T19:48:04.712Z,83.67
2023-03-05T19:50:34.642Z,82.91
2023-03-05T19:53:03.449Z,82.81
2023-03-05T19:55:31.066Z,83.11
2023-03-05T19:57:58.597Z,82.85
2023-03-05T20:00:27.473Z,82.53
2023-03-05T20:02:55.258Z,82.89
2023-03-05T20:05:25.495Z,82.33
2023-03-05T20:07:54.952Z,82.76
2023-03-05T20:10:22.932Z,83.27
2023-03-05T20:12:50.918Z,83.16
2023-03-05T20:15:19.546Z,83.74
2023-03-05T20:17:47.224Z,83.79
2023-03-05T20:20:15.933Z,82.82
2023-03-05T20:22:44.048Z,83.57
2023-03-05T20:25:14.004Z,84.01
2023-03-05T20:27:41.627Z,85.23
2023-03-05T20:30:13.679Z,85.20
2023-03-05T20:32:41.793Z,84.77
2023-03-05T20:35:13.615Z,84.14
2023-03-05T20:37:49.241Z,84.17
2023-03-05T20:40:18.861Z,83.42
2023-03-05T20:42:46.467Z,84.11
2023-03-05T20:45:15.192Z,85.14
2023-03-05T20:47:46.201Z,84.51
2023-03-05T20:50:16.231Z,84.53
2023-03-05T20:52:43.950Z,86.74
2023-03-05T20:55:12.904Z,85.41
2023-03-05T20:57:44.022Z,84.43
2023-03-05T21:00:13.636Z,84.52
2023-03-05T21:02:41.763Z,85.07
2023-03-05T21:05:09.958Z,85.21
2023-03-05T21:07:37.595Z,84.22
2023-03-05T21:10:06.336Z,84.87
2023-03-05T21:12:34.500Z,84.90
2023-03-05T21:15:03.584Z,84.62
2023-03-05T21:17:31.186Z,85.12
2023-03-05T21:19:58.985Z,84.68
2023-03-05T21:22:26.746Z,85.54
2023-03-05T21:25:02.056Z,85.64
2023-03-05T21:27:29.836Z,85.57
2023-03-05T21:29:57.847Z,86.12
2023-03-05T21:32:26.773Z,85.65
2023-03-05T21:34:54.377Z,86.17
2023-03-05T21:37:21.966Z,86.25
2023-03-05T21:39:49.603Z,85.49
2023-03-05T21:42:17.267Z,85.66
2023-03-05T21:44:44.882Z,86.06
2023-03-05T21:47:12.641Z,85.65
2023-03-05T21:49:42.650Z,86.57
2023-03-05T21:52:12.594Z,86.60
2023-03-05T21:54:40.941Z,87.78
2023-03-05T21:57:10.368Z,86.59
2023-03-05T21:59:40.371Z,86.20
2023-03-05T22:02:11.222Z,85.00
2023-03-05T22:04:38.805Z,85.58
2023-03-05T22:07:08.212Z,86.34
2023-03-05T22:09:35.985Z,85.84
2023-03-05T22:12:04.659Z,86.90
2023-03-05T22:14:32.213Z,86.67
2023-03-05T22:17:02.056Z,87.30
2023-03-05T22:19:30.918Z,85.63
2023-03-05T22:21:58.511Z,86.04
2023-03-05T22:24:27.483Z,85.05
2023-03-05T22:26:55.179Z,84.49
2023-03-05T22:29:22.745Z,85.78
2023-03-05T22:31:50.302Z,85.04
2023-03-05T22:34:17.837Z,85.36
2023-03-05T22:36:45.462Z,87.22
2023-03-05T22:39:13.287Z,86.54
2023-03-05T22:41:45.132Z,87.09
2023-03-05T22:44:12.696Z,86.59
2023-03-05T22:46:40.603Z,84.89
2023-03-05T22:49:08.143Z,83.37
2023-03-05T22:51:35.823Z,83.88
2023-03-05T22:54:03.745Z,83.11
2023-03-05T22:56:31.376Z,84.31
2023-03-05T22:59:00.287Z,84.87
2023-03-05T23:01:27.924Z,85.42
2023-03-05T23:04:03.149Z,84.81
2023-03-05T23:06:30.896Z,84.80
2023-03-05T23:08:58.527Z,85.46
2023-03-05T23:11:26.431Z,85.63
2023-03-05T23:13:54.236Z,84.75
2023-03-05T23:16:23.252Z,85.85
2023-03-05T23:18:50.848Z,85.08
2023-03-05T23:21:20.980Z,84.76
2023-03-05T23:23:48.614Z,85.21
2023-03-05T23:26:16.176Z,85.38
2023-03-05T23:28:43.801Z,84.13
2023-03-05T23:31:11.578Z,83.74
2023-03-05T23:33:41.105Z,84.16
2023-03-05T23:36:09.610Z,84.25
2023-03-05T23:38:38.377Z,85.32
2023-03-05T23:41:09.554Z,85.67
2023-03-05T23:43:37.228Z,85.68
2023-03-05T23:46:11.820Z,85.43
2023-03-05T23:48:40.847Z,84.83
2023-03-05T23:51:09.432Z,84.76
2023-03-05T23:53:37.550Z,84.68
2023-03-05T23:56:10.400Z,85.58
2023-03-05T23:58:38.082Z,85.92
